sensor_id;sensor_type;location;lat;lon;timestamp;P1;durP1;ratioP1;P2;durP2;ratioP2
55728;SDS011;41633;39.720;2.910;2023-07-13T00:01:44;23.13;;;6.38;;
55728;SDS011;41633;39.720;2.910;2023-07-13T00:04:14;21.08;;;6.43;;
55728;SDS011;41633;39.720;2.910;2023-07-13T00:06:41;17.80;;;5.85;;
55728;SDS011;41633;39.720;2.910;2023-07-13T00:09:10;22.45;;;6.13;;
55728;SDS011;41633;39.720;2.910;2023-07-13T00:11:37;24.85;;;6.75;;
55728;SDS011;41633;39.720;2.910;2023-07-13T00:14:04;19.10;;;5.70;;
55728;SDS011;41633;39.720;2.910;2023-07-13T00:16:31;25.33;;;6.28;;
55728;SDS011;41633;39.720;2.910;2023-07-13T00:18:57;22.05;;;6.25;;
55728;SDS011;41633;39.720;2.910;2023-07-13T00:21:25;18.20;;;5.60;;
55728;SDS011;41633;39.720;2.910;2023-07-13T00:23:51;20.50;;;6.28;;
55728;SDS011;41633;39.720;2.910;2023-07-13T00:26:18;25.35;;;5.97;;
55728;SDS011;41633;39.720;2.910;2023-07-13T00:28:44;22.30;;;6.03;;
55728;SDS011;41633;39.720;2.910;2023-07-13T00:31:11;25.52;;;5.47;;
55728;SDS011;41633;39.720;2.910;2023-07-13T00:33:39;24.55;;;6.47;;
55728;SDS011;41633;39.720;2.910;2023-07-13T00:36:05;21.42;;;6.15;;
55728;SDS011;41633;39.720;2.910;2023-07-13T00:38:32;22.15;;;5.82;;
55728;SDS011;41633;39.720;2.910;2023-07-13T00:40:58;25.02;;;7.03;;
55728;SDS011;41633;39.720;2.910;2023-07-13T00:43:26;18.80;;;5.55;;
55728;SDS011;41633;39.720;2.910;2023-07-13T00:48:24;25.85;;;6.78;;
55728;SDS011;41633;39.720;2.910;2023-07-13T00:50:52;23.45;;;6.10;;
55728;SDS011;41633;39.720;2.910;2023-07-13T00:53:19;28.30;;;6.68;;
55728;SDS011;41633;39.720;2.910;2023-07-13T00:55:46;18.00;;;5.68;;
55728;SDS011;41633;39.720;2.910;2023-07-13T00:58:13;21.48;;;5.65;;
55728;SDS011;41633;39.720;2.910;2023-07-13T01:00:39;20.75;;;5.60;;
55728;SDS011;41633;39.720;2.910;2023-07-13T01:03:05;17.70;;;5.20;;
55728;SDS011;41633;39.720;2.910;2023-07-13T01:05:32;21.70;;;5.53;;
55728;SDS011;41633;39.720;2.910;2023-07-13T01:07:59;19.38;;;5.43;;
55728;SDS011;41633;39.720;2.910;2023-07-13T01:10:26;20.13;;;5.22;;
55728;SDS011;41633;39.720;2.910;2023-07-13T01:12:53;24.17;;;6.05;;
55728;SDS011;41633;39.720;2.910;2023-07-13T01:18:01;19.95;;;5.53;;
55728;SDS011;41633;39.720;2.910;2023-07-13T01:20:28;22.13;;;5.85;;
55728;SDS011;41633;39.720;2.910;2023-07-13T01:22:54;25.50;;;5.78;;
55728;SDS011;41633;39.720;2.910;2023-07-13T01:25:20;20.33;;;6.05;;
55728;SDS011;41633;39.720;2.910;2023-07-13T01:27:46;20.55;;;5.68;;
55728;SDS011;41633;39.720;2.910;2023-07-13T01:30:13;18.63;;;5.50;;
55728;SDS011;41633;39.720;2.910;2023-07-13T01:32:39;20.05;;;5.18;;
55728;SDS011;41633;39.720;2.910;2023-07-13T01:35:07;20.50;;;5.10;;
55728;SDS011;41633;39.720;2.910;2023-07-13T01:37:33;19.75;;;5.20;;
55728;SDS011;41633;39.720;2.910;2023-07-13T01:40:02;19.90;;;5.03;;
55728;SDS011;41633;39.720;2.910;2023-07-13T01:42:28;17.40;;;5.20;;
55728;SDS011;41633;39.720;2.910;2023-07-13T01:44:54;15.82;;;4.75;;
55728;SDS011;41633;39.720;2.910;2023-07-13T01:47:21;18.02;;;5.07;;
55728;SDS011;41633;39.720;2.910;2023-07-13T01:49:48;18.92;;;5.35;;
55728;SDS011;41633;39.720;2.910;2023-07-13T01:52:17;18.15;;;4.70;;
55728;SDS011;41633;39.720;2.910;2023-07-13T01:54:43;15.90;;;4.85;;
55728;SDS011;41633;39.720;2.910;2023-07-13T01:57:09;15.82;;;4.20;;
55728;SDS011;41633;39.720;2.910;2023-07-13T01:59:35;19.40;;;5.00;;
55728;SDS011;41633;39.720;2.910;2023-07-13T02:02:01;20.35;;;4.53;;
55728;SDS011;41633;39.720;2.910;2023-07-13T02:04:27;18.77;;;4.85;;
55728;SDS011;41633;39.720;2.910;2023-07-13T02:06:54;16.10;;;4.22;;
55728;SDS011;41633;39.720;2.910;2023-07-13T02:09:20;18.13;;;4.80;;
55728;SDS011;41633;39.720;2.910;2023-07-13T02:11:47;16.05;;;3.90;;
55728;SDS011;41633;39.720;2.910;2023-07-13T02:14:13;19.80;;;4.40;;
55728;SDS011;41633;39.720;2.910;2023-07-13T02:16:40;16.85;;;4.53;;
55728;SDS011;41633;39.720;2.910;2023-07-13T02:19:07;16.17;;;4.60;;
55728;SDS011;41633;39.720;2.910;2023-07-13T02:21:33;21.33;;;4.78;;
55728;SDS011;41633;39.720;2.910;2023-07-13T02:23:59;17.88;;;4.28;;
55728;SDS011;41633;39.720;2.910;2023-07-13T02:26:26;12.20;;;4.00;;
55728;SDS011;41633;39.720;2.910;2023-07-13T02:28:52;19.63;;;4.13;;
55728;SDS011;41633;39.720;2.910;2023-07-13T02:31:19;14.77;;;4.13;;
55728;SDS011;41633;39.720;2.910;2023-07-13T02:33:45;17.92;;;4.03;;
55728;SDS011;41633;39.720;2.910;2023-07-13T02:36:11;14.80;;;3.90;;
55728;SDS011;41633;39.720;2.910;2023-07-13T02:38:39;17.65;;;3.97;;
55728;SDS011;41633;39.720;2.910;2023-07-13T02:41:06;15.45;;;3.95;;
55728;SDS011;41633;39.720;2.910;2023-07-13T02:43:33;14.90;;;3.88;;
55728;SDS011;41633;39.720;2.910;2023-07-13T02:46:00;14.30;;;3.75;;
55728;SDS011;41633;39.720;2.910;2023-07-13T02:48:32;13.88;;;3.00;;
55728;SDS011;41633;39.720;2.910;2023-07-13T02:50:58;14.32;;;3.17;;
55728;SDS011;41633;39.720;2.910;2023-07-13T02:53:24;13.75;;;3.80;;
55728;SDS011;41633;39.720;2.910;2023-07-13T02:55:50;17.98;;;3.58;;
55728;SDS011;41633;39.720;2.910;2023-07-13T02:58:17;11.50;;;3.50;;
55728;SDS011;41633;39.720;2.910;2023-07-13T03:00:43;13.00;;;3.72;;
55728;SDS011;41633;39.720;2.910;2023-07-13T03:03:11;13.13;;;3.30;;
55728;SDS011;41633;39.720;2.910;2023-07-13T03:05:40;15.48;;;3.92;;
55728;SDS011;41633;39.720;2.910;2023-07-13T03:08:07;14.13;;;3.83;;
55728;SDS011;41633;39.720;2.910;2023-07-13T03:10:33;13.23;;;3.45;;
55728;SDS011;41633;39.720;2.910;2023-07-13T03:13:00;15.80;;;3.65;;
55728;SDS011;41633;39.720;2.910;2023-07-13T03:15:26;16.38;;;4.03;;
55728;SDS011;41633;39.720;2.910;2023-07-13T03:17:52;14.70;;;3.80;;
55728;SDS011;41633;39.720;2.910;2023-07-13T03:20:19;12.93;;;3.55;;
55728;SDS011;41633;39.720;2.910;2023-07-13T03:22:45;14.18;;;3.65;;
55728;SDS011;41633;39.720;2.910;2023-07-13T03:25:12;15.10;;;4.10;;
55728;SDS011;41633;39.720;2.910;2023-07-13T03:27:38;13.05;;;3.75;;
55728;SDS011;41633;39.720;2.910;2023-07-13T03:30:05;18.52;;;4.40;;
55728;SDS011;41633;39.720;2.910;2023-07-13T03:32:32;14.15;;;3.53;;
55728;SDS011;41633;39.720;2.910;2023-07-13T03:34:58;13.77;;;3.60;;
55728;SDS011;41633;39.720;2.910;2023-07-13T03:37:24;13.95;;;3.97;;
55728;SDS011;41633;39.720;2.910;2023-07-13T03:39:50;14.13;;;3.80;;
55728;SDS011;41633;39.720;2.910;2023-07-13T03:42:16;12.60;;;3.78;;
55728;SDS011;41633;39.720;2.910;2023-07-13T03:44:43;15.48;;;3.97;;
55728;SDS011;41633;39.720;2.910;2023-07-13T03:47:15;16.48;;;4.00;;
55728;SDS011;41633;39.720;2.910;2023-07-13T03:49:41;11.40;;;3.70;;
55728;SDS011;41633;39.720;2.910;2023-07-13T03:52:08;12.57;;;3.67;;
55728;SDS011;41633;39.720;2.910;2023-07-13T03:54:34;13.15;;;3.80;;
55728;SDS011;41633;39.720;2.910;2023-07-13T03:57:00;12.55;;;3.92;;
55728;SDS011;41633;39.720;2.910;2023-07-13T03:59:26;12.43;;;3.65;;
55728;SDS011;41633;39.720;2.910;2023-07-13T04:01:52;15.20;;;4.70;;
55728;SDS011;41633;39.720;2.910;2023-07-13T04:04:20;13.70;;;4.13;;
55728;SDS011;41633;39.720;2.910;2023-07-13T04:06:46;14.68;;;3.88;;
55728;SDS011;41633;39.720;2.910;2023-07-13T04:09:13;15.15;;;3.75;;
55728;SDS011;41633;39.720;2.910;2023-07-13T04:11:39;13.43;;;3.42;;
55728;SDS011;41633;39.720;2.910;2023-07-13T04:14:06;16.73;;;3.78;;
55728;SDS011;41633;39.720;2.910;2023-07-13T04:16:32;14.15;;;3.88;;
55728;SDS011;41633;39.720;2.910;2023-07-13T04:18:58;13.63;;;3.63;;
55728;SDS011;41633;39.720;2.910;2023-07-13T04:21:25;11.15;;;3.45;;
55728;SDS011;41633;39.720;2.910;2023-07-13T04:23:52;13.82;;;3.80;;
55728;SDS011;41633;39.720;2.910;2023-07-13T04:26:18;12.55;;;3.53;;
55728;SDS011;41633;39.720;2.910;2023-07-13T04:28:46;11.25;;;4.10;;
55728;SDS011;41633;39.720;2.910;2023-07-13T04:31:13;14.07;;;3.35;;
55728;SDS011;41633;39.720;2.910;2023-07-13T04:33:39;13.73;;;3.70;;
55728;SDS011;41633;39.720;2.910;2023-07-13T04:36:05;14.18;;;3.42;;
55728;SDS011;41633;39.720;2.910;2023-07-13T04:38:34;13.75;;;3.90;;
55728;SDS011;41633;39.720;2.910;2023-07-13T04:41:01;13.00;;;3.85;;
55728;SDS011;41633;39.720;2.910;2023-07-13T04:43:28;15.30;;;3.78;;
55728;SDS011;41633;39.720;2.910;2023-07-13T04:45:54;15.05;;;4.03;;
55728;SDS011;41633;39.720;2.910;2023-07-13T04:48:21;17.90;;;4.55;;
55728;SDS011;41633;39.720;2.910;2023-07-13T04:50:53;17.30;;;3.83;;
55728;SDS011;41633;39.720;2.910;2023-07-13T04:53:20;28.63;;;6.32;;
55728;SDS011;41633;39.720;2.910;2023-07-13T04:55:46;23.05;;;4.85;;
55728;SDS011;41633;39.720;2.910;2023-07-13T04:58:12;16.88;;;4.13;;
55728;SDS011;41633;39.720;2.910;2023-07-13T05:00:38;17.48;;;3.80;;
55728;SDS011;41633;39.720;2.910;2023-07-13T05:03:05;17.40;;;3.90;;
55728;SDS011;41633;39.720;2.910;2023-07-13T05:05:31;19.35;;;4.43;;
55728;SDS011;41633;39.720;2.910;2023-07-13T05:07:59;14.98;;;3.85;;
55728;SDS011;41633;39.720;2.910;2023-07-13T05:10:25;16.02;;;3.67;;
55728;SDS011;41633;39.720;2.910;2023-07-13T05:12:51;13.60;;;3.88;;
55728;SDS011;41633;39.720;2.910;2023-07-13T05:15:18;13.55;;;3.60;;
55728;SDS011;41633;39.720;2.910;2023-07-13T05:17:46;12.93;;;3.70;;
55728;SDS011;41633;39.720;2.910;2023-07-13T05:20:12;15.65;;;3.58;;
55728;SDS011;41633;39.720;2.910;2023-07-13T05:22:39;15.80;;;3.90;;
55728;SDS011;41633;39.720;2.910;2023-07-13T05:25:06;16.27;;;3.75;;
55728;SDS011;41633;39.720;2.910;2023-07-13T05:27:33;14.07;;;3.72;;
55728;SDS011;41633;39.720;2.910;2023-07-13T05:29:59;14.32;;;4.13;;
55728;SDS011;41633;39.720;2.910;2023-07-13T05:32:26;13.20;;;3.65;;
55728;SDS011;41633;39.720;2.910;2023-07-13T05:34:52;18.80;;;4.22;;
55728;SDS011;41633;39.720;2.910;2023-07-13T05:37:18;14.55;;;3.22;;
55728;SDS011;41633;39.720;2.910;2023-07-13T05:39:44;14.80;;;4.07;;
55728;SDS011;41633;39.720;2.910;2023-07-13T05:42:10;16.20;;;4.00;;
55728;SDS011;41633;39.720;2.910;2023-07-13T05:44:37;13.60;;;3.70;;
55728;SDS011;41633;39.720;2.910;2023-07-13T05:47:03;21.13;;;4.18;;
55728;SDS011;41633;39.720;2.910;2023-07-13T05:49:29;17.65;;;3.80;;
55728;SDS011;41633;39.720;2.910;2023-07-13T05:51:55;20.30;;;4.07;;
55728;SDS011;41633;39.720;2.910;2023-07-13T05:54:22;16.83;;;4.15;;
55728;SDS011;41633;39.720;2.910;2023-07-13T05:56:48;13.07;;;3.60;;
55728;SDS011;41633;39.720;2.910;2023-07-13T05:59:14;14.25;;;3.47;;
55728;SDS011;41633;39.720;2.910;2023-07-13T06:01:41;13.68;;;3.60;;
55728;SDS011;41633;39.720;2.910;2023-07-13T06:04:07;15.70;;;3.85;;
55728;SDS011;41633;39.720;2.910;2023-07-13T06:06:33;15.32;;;3.60;;
55728;SDS011;41633;39.720;2.910;2023-07-13T06:08:59;12.93;;;3.28;;
55728;SDS011;41633;39.720;2.910;2023-07-13T06:11:26;13.32;;;3.70;;
55728;SDS011;41633;39.720;2.910;2023-07-13T06:13:54;13.27;;;3.53;;
55728;SDS011;41633;39.720;2.910;2023-07-13T06:16:21;15.77;;;4.10;;
55728;SDS011;41633;39.720;2.910;2023-07-13T06:18:48;12.70;;;3.78;;
55728;SDS011;41633;39.720;2.910;2023-07-13T06:21:18;17.38;;;4.55;;
55728;SDS011;41633;39.720;2.910;2023-07-13T06:23:45;17.50;;;4.47;;
55728;SDS011;41633;39.720;2.910;2023-07-13T06:26:12;16.23;;;4.55;;
55728;SDS011;41633;39.720;2.910;2023-07-13T06:28:39;16.52;;;4.72;;
55728;SDS011;41633;39.720;2.910;2023-07-13T06:31:06;14.15;;;4.03;;
55728;SDS011;41633;39.720;2.910;2023-07-13T06:33:33;16.38;;;4.25;;
55728;SDS011;41633;39.720;2.910;2023-07-13T06:35:59;18.58;;;4.90;;
55728;SDS011;41633;39.720;2.910;2023-07-13T06:38:25;17.30;;;4.75;;
55728;SDS011;41633;39.720;2.910;2023-07-13T06:40:51;14.23;;;3.92;;
55728;SDS011;41633;39.720;2.910;2023-07-13T06:43:17;14.80;;;4.03;;
55728;SDS011;41633;39.720;2.910;2023-07-13T06:45:46;18.33;;;4.82;;
55728;SDS011;41633;39.720;2.910;2023-07-13T06:48:14;15.05;;;4.60;;
55728;SDS011;41633;39.720;2.910;2023-07-13T06:50:41;16.90;;;4.60;;
55728;SDS011;41633;39.720;2.910;2023-07-13T06:53:07;14.27;;;3.97;;
55728;SDS011;41633;39.720;2.910;2023-07-13T06:55:34;16.08;;;4.03;;
55728;SDS011;41633;39.720;2.910;2023-07-13T06:58:00;17.60;;;4.10;;
55728;SDS011;41633;39.720;2.910;2023-07-13T07:00:26;13.00;;;3.88;;
55728;SDS011;41633;39.720;2.910;2023-07-13T07:02:52;19.23;;;4.13;;
55728;SDS011;41633;39.720;2.910;2023-07-13T07:05:18;16.50;;;3.72;;
55728;SDS011;41633;39.720;2.910;2023-07-13T07:07:50;15.98;;;3.92;;
55728;SDS011;41633;39.720;2.910;2023-07-13T07:10:17;13.98;;;4.28;;
55728;SDS011;41633;39.720;2.910;2023-07-13T07:12:43;16.67;;;4.38;;
55728;SDS011;41633;39.720;2.910;2023-07-13T07:15:10;16.83;;;4.50;;
55728;SDS011;41633;39.720;2.910;2023-07-13T07:17:36;17.02;;;3.58;;
55728;SDS011;41633;39.720;2.910;2023-07-13T07:20:03;16.92;;;3.92;;
55728;SDS011;41633;39.720;2.910;2023-07-13T07:22:29;17.17;;;3.70;;
55728;SDS011;41633;39.720;2.910;2023-07-13T07:24:56;17.30;;;4.55;;
55728;SDS011;41633;39.720;2.910;2023-07-13T07:27:22;15.20;;;3.90;;
55728;SDS011;41633;39.720;2.910;2023-07-13T07:29:49;16.67;;;3.75;;
55728;SDS011;41633;39.720;2.910;2023-07-13T07:32:15;14.27;;;4.25;;
55728;SDS011;41633;39.720;2.910;2023-07-13T07:34:41;13.48;;;3.75;;
55728;SDS011;41633;39.720;2.910;2023-07-13T07:37:09;14.38;;;3.90;;
55728;SDS011;41633;39.720;2.910;2023-07-13T07:39:36;14.70;;;3.75;;
55728;SDS011;41633;39.720;2.910;2023-07-13T07:42:03;13.98;;;3.53;;
55728;SDS011;41633;39.720;2.910;2023-07-13T07:44:30;12.52;;;3.55;;
55728;SDS011;41633;39.720;2.910;2023-07-13T07:46:56;16.58;;;3.88;;
55728;SDS011;41633;39.720;2.910;2023-07-13T07:49:23;14.00;;;3.90;;
55728;SDS011;41633;39.720;2.910;2023-07-13T07:51:49;14.55;;;3.53;;
55728;SDS011;41633;39.720;2.910;2023-07-13T07:54:15;13.98;;;3.78;;
55728;SDS011;41633;39.720;2.910;2023-07-13T07:56:41;13.35;;;3.05;;
55728;SDS011;41633;39.720;2.910;2023-07-13T07:59:08;13.30;;;3.60;;
55728;SDS011;41633;39.720;2.910;2023-07-13T08:01:34;10.68;;;3.28;;
55728;SDS011;41633;39.720;2.910;2023-07-13T08:04:00;14.15;;;3.15;;
55728;SDS011;41633;39.720;2.910;2023-07-13T08:06:27;13.60;;;3.30;;
55728;SDS011;41633;39.720;2.910;2023-07-13T08:08:54;10.80;;;2.97;;
55728;SDS011;41633;39.720;2.910;2023-07-13T08:11:20;12.85;;;3.20;;
55728;SDS011;41633;39.720;2.910;2023-07-13T08:13:47;11.60;;;2.92;;
55728;SDS011;41633;39.720;2.910;2023-07-13T08:16:13;14.38;;;3.13;;
55728;SDS011;41633;39.720;2.910;2023-07-13T08:18:39;15.10;;;3.28;;
55728;SDS011;41633;39.720;2.910;2023-07-13T08:21:06;11.35;;;3.03;;
55728;SDS011;41633;39.720;2.910;2023-07-13T08:23:33;12.38;;;2.90;;
55728;SDS011;41633;39.720;2.910;2023-07-13T08:25:59;10.75;;;2.90;;
55728;SDS011;41633;39.720;2.910;2023-07-13T08:28:29;13.65;;;2.70;;
55728;SDS011;41633;39.720;2.910;2023-07-13T08:31:00;15.23;;;2.90;;
55728;SDS011;41633;39.720;2.910;2023-07-13T08:33:26;11.55;;;2.83;;
55728;SDS011;41633;39.720;2.910;2023-07-13T08:35:52;9.90;;;2.78;;
55728;SDS011;41633;39.720;2.910;2023-07-13T08:38:18;15.95;;;3.38;;
55728;SDS011;41633;39.720;2.910;2023-07-13T08:40:45;14.07;;;3.13;;
55728;SDS011;41633;39.720;2.910;2023-07-13T08:43:16;9.25;;;2.60;;
55728;SDS011;41633;39.720;2.910;2023-07-13T08:45:43;11.73;;;2.60;;
55728;SDS011;41633;39.720;2.910;2023-07-13T08:48:11;11.95;;;2.33;;
55728;SDS011;41633;39.720;2.910;2023-07-13T08:50:43;13.02;;;3.00;;
55728;SDS011;41633;39.720;2.910;2023-07-13T08:53:13;16.48;;;2.90;;
55728;SDS011;41633;39.720;2.910;2023-07-13T08:55:41;10.40;;;2.55;;
55728;SDS011;41633;39.720;2.910;2023-07-13T08:58:14;10.80;;;2.20;;
55728;SDS011;41633;39.720;2.910;2023-07-13T09:00:44;10.15;;;2.70;;
55728;SDS011;41633;39.720;2.910;2023-07-13T09:03:23;10.88;;;2.83;;
55728;SDS011;41633;39.720;2.910;2023-07-13T09:05:52;8.82;;;2.47;;
55728;SDS011;41633;39.720;2.910;2023-07-13T09:10:53;10.10;;;2.20;;
55728;SDS011;41633;39.720;2.910;2023-07-13T09:16:03;12.23;;;2.88;;
55728;SDS011;41633;39.720;2.910;2023-07-13T09:18:37;15.27;;;2.80;;
55728;SDS011;41633;39.720;2.910;2023-07-13T09:21:09;10.55;;;2.63;;
55728;SDS011;41633;39.720;2.910;2023-07-13T09:23:36;9.48;;;2.38;;
55728;SDS011;41633;39.720;2.910;2023-07-13T09:26:09;9.80;;;2.33;;
55728;SDS011;41633;39.720;2.910;2023-07-13T09:29:12;14.27;;;3.10;;
55728;SDS011;41633;39.720;2.910;2023-07-13T09:31:42;9.93;;;2.53;;
55728;SDS011;41633;39.720;2.910;2023-07-13T09:34:09;9.40;;;2.40;;
55728;SDS011;41633;39.720;2.910;2023-07-13T09:36:36;9.68;;;2.53;;
55728;SDS011;41633;39.720;2.910;2023-07-13T09:44:08;9.07;;;2.40;;
55728;SDS011;41633;39.720;2.910;2023-07-13T09:46:35;9.90;;;2.10;;
55728;SDS011;41633;39.720;2.910;2023-07-13T09:49:01;7.78;;;2.00;;
55728;SDS011;41633;39.720;2.910;2023-07-13T09:51:27;11.05;;;2.33;;
55728;SDS011;41633;39.720;2.910;2023-07-13T09:53:53;10.25;;;2.17;;
55728;SDS011;41633;39.720;2.910;2023-07-13T09:56:27;11.55;;;2.30;;
55728;SDS011;41633;39.720;2.910;2023-07-13T09:58:54;10.57;;;2.55;;
55728;SDS011;41633;39.720;2.910;2023-07-13T10:01:36;12.95;;;2.13;;
55728;SDS011;41633;39.720;2.910;2023-07-13T10:04:10;8.52;;;2.15;;
55728;SDS011;41633;39.720;2.910;2023-07-13T10:06:38;7.75;;;2.17;;
55728;SDS011;41633;39.720;2.910;2023-07-13T10:09:08;9.63;;;1.80;;
55728;SDS011;41633;39.720;2.910;2023-07-13T10:11:35;7.43;;;2.10;;
55728;SDS011;41633;39.720;2.910;2023-07-13T10:14:15;9.80;;;2.22;;
55728;SDS011;41633;39.720;2.910;2023-07-13T10:16:42;10.43;;;2.42;;
55728;SDS011;41633;39.720;2.910;2023-07-13T10:19:17;11.50;;;2.40;;
55728;SDS011;41633;39.720;2.910;2023-07-13T10:22:00;7.90;;;2.17;;
55728;SDS011;41633;39.720;2.910;2023-07-13T10:24:27;10.25;;;2.20;;
55728;SDS011;41633;39.720;2.910;2023-07-13T10:27:00;13.07;;;2.00;;
55728;SDS011;41633;39.720;2.910;2023-07-13T10:29:29;7.22;;;1.58;;
55728;SDS011;41633;39.720;2.910;2023-07-13T10:32:00;10.07;;;3.03;;
55728;SDS011;41633;39.720;2.910;2023-07-13T10:34:26;13.07;;;2.58;;
55728;SDS011;41633;39.720;2.910;2023-07-13T10:36:52;7.18;;;1.65;;
55728;SDS011;41633;39.720;2.910;2023-07-13T10:39:20;8.82;;;2.30;;
55728;SDS011;41633;39.720;2.910;2023-07-13T10:41:49;9.30;;;1.92;;
55728;SDS011;41633;39.720;2.910;2023-07-13T10:44:18;12.82;;;2.10;;
55728;SDS011;41633;39.720;2.910;2023-07-13T10:46:45;10.45;;;2.13;;
55728;SDS011;41633;39.720;2.910;2023-07-13T10:49:12;12.32;;;2.20;;
55728;SDS011;41633;39.720;2.910;2023-07-13T10:51:38;11.25;;;2.20;;
55728;SDS011;41633;39.720;2.910;2023-07-13T10:56:35;10.45;;;2.25;;
55728;SDS011;41633;39.720;2.910;2023-07-13T10:59:09;16.38;;;2.45;;
55728;SDS011;41633;39.720;2.910;2023-07-13T11:01:56;14.02;;;2.20;;
55728;SDS011;41633;39.720;2.910;2023-07-13T11:04:23;17.95;;;2.50;;
55728;SDS011;41633;39.720;2.910;2023-07-13T11:06:52;45.03;;;4.80;;
55728;SDS011;41633;39.720;2.910;2023-07-13T11:09:30;12.85;;;2.53;;
55728;SDS011;41633;39.720;2.910;2023-07-13T11:12:01;11.57;;;2.38;;
55728;SDS011;41633;39.720;2.910;2023-07-13T11:15:10;8.77;;;1.98;;
55728;SDS011;41633;39.720;2.910;2023-07-13T11:17:24;15.10;;;2.28;;
55728;SDS011;41633;39.720;2.910;2023-07-13T11:22:53;8.70;;;2.10;;
55728;SDS011;41633;39.720;2.910;2023-07-13T11:25:33;8.25;;;2.40;;
55728;SDS011;41633;39.720;2.910;2023-07-13T11:30:49;9.00;;;2.30;;
55728;SDS011;41633;39.720;2.910;2023-07-13T11:33:17;9.05;;;2.35;;
55728;SDS011;41633;39.720;2.910;2023-07-13T11:41:02;10.60;;;2.30;;
55728;SDS011;41633;39.720;2.910;2023-07-13T11:43:29;8.00;;;2.20;;
55728;SDS011;41633;39.720;2.910;2023-07-13T11:45:55;9.57;;;2.13;;
55728;SDS011;41633;39.720;2.910;2023-07-13T11:48:23;10.27;;;2.20;;
55728;SDS011;41633;39.720;2.910;2023-07-13T11:50:57;11.23;;;2.55;;
55728;SDS011;41633;39.720;2.910;2023-07-13T11:53:26;9.90;;;2.33;;
55728;SDS011;41633;39.720;2.910;2023-07-13T11:55:52;10.70;;;2.20;;
55728;SDS011;41633;39.720;2.910;2023-07-13T11:58:21;11.40;;;2.47;;
55728;SDS011;41633;39.720;2.910;2023-07-13T12:00:49;9.75;;;2.03;;
55728;SDS011;41633;39.720;2.910;2023-07-13T12:03:17;9.40;;;2.17;;
55728;SDS011;41633;39.720;2.910;2023-07-13T12:05:58;7.20;;;1.92;;
55728;SDS011;41633;39.720;2.910;2023-07-13T12:08:26;8.48;;;1.85;;
55728;SDS011;41633;39.720;2.910;2023-07-13T12:11:26;8.13;;;2.08;;
55728;SDS011;41633;39.720;2.910;2023-07-13T12:13:46;8.05;;;2.22;;
55728;SDS011;41633;39.720;2.910;2023-07-13T12:16:17;7.85;;;2.05;;
55728;SDS011;41633;39.720;2.910;2023-07-13T12:18:47;8.77;;;1.85;;
55728;SDS011;41633;39.720;2.910;2023-07-13T12:21:16;8.45;;;2.08;;
55728;SDS011;41633;39.720;2.910;2023-07-13T12:23:44;9.88;;;1.98;;
55728;SDS011;41633;39.720;2.910;2023-07-13T12:26:10;8.55;;;2.08;;
55728;SDS011;41633;39.720;2.910;2023-07-13T12:28:45;10.02;;;1.90;;
55728;SDS011;41633;39.720;2.910;2023-07-13T12:31:32;7.32;;;1.88;;
55728;SDS011;41633;39.720;2.910;2023-07-13T12:34:00;8.18;;;1.88;;
55728;SDS011;41633;39.720;2.910;2023-07-13T12:36:29;10.85;;;2.17;;
55728;SDS011;41633;39.720;2.910;2023-07-13T12:38:56;8.70;;;2.25;;
55728;SDS011;41633;39.720;2.910;2023-07-13T12:41:22;9.07;;;2.20;;
55728;SDS011;41633;39.720;2.910;2023-07-13T12:43:48;7.35;;;1.98;;
55728;SDS011;41633;39.720;2.910;2023-07-13T12:46:17;12.90;;;2.50;;
55728;SDS011;41633;39.720;2.910;2023-07-13T12:48:47;7.60;;;1.90;;
55728;SDS011;41633;39.720;2.910;2023-07-13T12:51:14;9.60;;;2.08;;
55728;SDS011;41633;39.720;2.910;2023-07-13T12:53:47;8.68;;;1.98;;
55728;SDS011;41633;39.720;2.910;2023-07-13T12:56:18;10.48;;;1.95;;
55728;SDS011;41633;39.720;2.910;2023-07-13T12:58:45;9.68;;;2.10;;
55728;SDS011;41633;39.720;2.910;2023-07-13T13:01:15;8.82;;;2.10;;
55728;SDS011;41633;39.720;2.910;2023-07-13T13:08:41;9.20;;;2.35;;
55728;SDS011;41633;39.720;2.910;2023-07-13T13:11:08;9.45;;;2.38;;
55728;SDS011;41633;39.720;2.910;2023-07-13T13:13:35;9.38;;;2.97;;
55728;SDS011;41633;39.720;2.910;2023-07-13T13:16:02;9.65;;;2.97;;
55728;SDS011;41633;39.720;2.910;2023-07-13T13:18:31;8.82;;;2.17;;
55728;SDS011;41633;39.720;2.910;2023-07-13T13:20:57;10.07;;;2.40;;
55728;SDS011;41633;39.720;2.910;2023-07-13T13:23:23;12.95;;;2.33;;
55728;SDS011;41633;39.720;2.910;2023-07-13T13:25:50;7.47;;;2.20;;
55728;SDS011;41633;39.720;2.910;2023-07-13T13:28:17;8.95;;;2.10;;
55728;SDS011;41633;39.720;2.910;2023-07-13T13:30:44;8.85;;;2.20;;
55728;SDS011;41633;39.720;2.910;2023-07-13T13:33:11;7.72;;;2.03;;
55728;SDS011;41633;39.720;2.910;2023-07-13T13:35:37;9.82;;;2.20;;
55728;SDS011;41633;39.720;2.910;2023-07-13T13:38:08;8.35;;;2.20;;
55728;SDS011;41633;39.720;2.910;2023-07-13T13:40:35;8.45;;;2.10;;
55728;SDS011;41633;39.720;2.910;2023-07-13T13:43:01;11.40;;;2.42;;
55728;SDS011;41633;39.720;2.910;2023-07-13T13:45:27;8.77;;;2.33;;
55728;SDS011;41633;39.720;2.910;2023-07-13T13:47:54;9.27;;;2.50;;
55728;SDS011;41633;39.720;2.910;2023-07-13T13:50:21;9.40;;;2.25;;
55728;SDS011;41633;39.720;2.910;2023-07-13T13:52:47;9.63;;;2.38;;
55728;SDS011;41633;39.720;2.910;2023-07-13T13:57:40;9.05;;;2.00;;
55728;SDS011;41633;39.720;2.910;2023-07-13T14:00:08;8.38;;;2.17;;
55728;SDS011;41633;39.720;2.910;2023-07-13T14:02:39;12.30;;;2.28;;
55728;SDS011;41633;39.720;2.910;2023-07-13T14:05:06;8.85;;;2.10;;
55728;SDS011;41633;39.720;2.910;2023-07-13T14:07:35;10.27;;;2.00;;
55728;SDS011;41633;39.720;2.910;2023-07-13T14:10:01;7.95;;;1.90;;
55728;SDS011;41633;39.720;2.910;2023-07-13T14:12:28;8.98;;;2.20;;
55728;SDS011;41633;39.720;2.910;2023-07-13T14:14:55;8.10;;;1.90;;
55728;SDS011;41633;39.720;2.910;2023-07-13T14:17:24;8.20;;;1.90;;
55728;SDS011;41633;39.720;2.910;2023-07-13T14:19:52;7.65;;;2.00;;
55728;SDS011;41633;39.720;2.910;2023-07-13T14:22:25;10.60;;;2.30;;
55728;SDS011;41633;39.720;2.910;2023-07-13T14:24:52;13.52;;;2.55;;
55728;SDS011;41633;39.720;2.910;2023-07-13T14:27:18;9.63;;;2.40;;
55728;SDS011;41633;39.720;2.910;2023-07-13T14:29:44;8.15;;;2.05;;
55728;SDS011;41633;39.720;2.910;2023-07-13T14:32:11;8.82;;;2.10;;
55728;SDS011;41633;39.720;2.910;2023-07-13T14:34:38;9.57;;;2.20;;
55728;SDS011;41633;39.720;2.910;2023-07-13T14:37:05;7.53;;;1.95;;
55728;SDS011;41633;39.720;2.910;2023-07-13T14:39:31;7.47;;;1.88;;
55728;SDS011;41633;39.720;2.910;2023-07-13T14:41:57;8.43;;;1.90;;
55728;SDS011;41633;39.720;2.910;2023-07-13T14:44:25;10.02;;;2.67;;
55728;SDS011;41633;39.720;2.910;2023-07-13T14:46:51;8.98;;;2.20;;
55728;SDS011;41633;39.720;2.910;2023-07-13T14:51:50;9.00;;;2.05;;
55728;SDS011;41633;39.720;2.910;2023-07-13T14:54:16;7.47;;;2.17;;
55728;SDS011;41633;39.720;2.910;2023-07-13T14:56:42;7.75;;;1.80;;
55728;SDS011;41633;39.720;2.910;2023-07-13T14:59:09;7.75;;;1.90;;
55728;SDS011;41633;39.720;2.910;2023-07-13T15:01:37;9.88;;;2.25;;
55728;SDS011;41633;39.720;2.910;2023-07-13T15:04:05;7.72;;;2.00;;
55728;SDS011;41633;39.720;2.910;2023-07-13T15:06:35;10.10;;;2.25;;
55728;SDS011;41633;39.720;2.910;2023-07-13T15:09:17;10.27;;;2.38;;
55728;SDS011;41633;39.720;2.910;2023-07-13T15:11:43;9.30;;;2.33;;
55728;SDS011;41633;39.720;2.910;2023-07-13T15:14:10;8.95;;;2.30;;
55728;SDS011;41633;39.720;2.910;2023-07-13T15:16:36;7.80;;;1.95;;
55728;SDS011;41633;39.720;2.910;2023-07-13T15:19:02;9.50;;;2.00;;
55728;SDS011;41633;39.720;2.910;2023-07-13T15:21:28;8.02;;;1.90;;